Time;durP1;ratioP1;P1;durP2;ratioP2;P2;SDS_P1;SDS_P2;PMS_P1;PMS_P2;Temp;Humidity;BMP_temperature;BMP_pressure;BME280_temperature;BME280_humidity;BME280_pressure;Samples;Min_cycle;Max_cycle;Signal;HPM_P1;HPM_P2
2021/09/18 00:01:09;;;;;;;;;;;;;;;14.71;84.46;97848.94;1826861;77;20776;-90
2021/09/18 00:03:35;;;;;;;;;;;;;;;14.67;84.47;97845.78;1824336;77;24543;-90
2021/09/18 00:06:01;;;;;;;;;;;;;;;14.65;84.45;97848.55;1824737;77;21963;-89
2021/09/18 00:08:35;;;;;;;;;;;;;;;14.62;84.46;97847.52;1826702;77;26051;-87
2021/09/18 00:11:02;;;;;;;;;;;;;;;14.62;84.46;97854.09;1823179;77;25128;-89
2021/09/18 00:13:29;;;;;;;;;;;;;;;14.64;84.47;97852.64;1826899;77;20460;-89
2021/09/18 00:15:55;;;;;;;;;;;;;;;14.64;84.49;97852.64;1826534;77;24557;-89
2021/09/18 00:18:21;;;;;;;;;;;;;;;14.64;84.50;97852.64;1827500;77;21920;-88
2021/09/18 00:20:48;;;;;;;;;;;;;;;14.64;84.53;97854.80;1822099;77;26045;-89
2021/09/18 00:23:14;;;;;;;;;;;;;;;14.70;84.54;97857.33;1831624;77;24386;-88
2021/09/18 00:25:52;;;;;;;;;;;;;;;14.74;84.56;97849.95;1825349;77;20215;-86
2021/09/18 00:28:18;;;;;;;;;;;;;;;14.75;84.57;97851.61;1824357;77;24592;-88
2021/09/18 00:30:44;;;;;;;;;;;;;;;14.78;84.58;97857.44;1825578;77;22022;-88
2021/09/18 00:33:10;;;;;;;;;;;;;;;14.80;84.58;97855.46;1824589;77;25907;-89
2021/09/18 00:35:36;;;;;;;;;;;;;;;14.78;84.57;97856.12;1798350;78;24459;-88
2021/09/18 00:38:03;;;;;;;;;;;;;;;14.79;84.57;97860.88;1823003;77;20230;-88
2021/09/18 00:40:29;;;;;;;;;;;;;;;14.78;84.56;97855.29;1824410;77;24489;-90
2021/09/18 00:42:58;;;;;;;;;;;;;;;14.81;84.57;97855.81;1832197;77;21939;-89
2021/09/18 00:45:24;;;;;;;;;;;;;;;14.83;84.53;97849.09;1821905;77;26036;-87
2021/09/18 00:47:50;;;;;;;;;;;;;;;14.87;84.53;97853.08;1821829;77;24476;-88
2021/09/18 00:50:16;;;;;;;;;;;;;;;14.88;84.51;97847.66;1831727;77;20819;-89
2021/09/18 00:52:42;;;;;;;;;;;;;;;14.89;84.50;97854.56;1827731;77;24741;-90
2021/09/18 00:55:14;;;;;;;;;;;;;;;14.89;84.49;97857.20;1819466;77;22168;-90
2021/09/18 00:57:41;;;;;;;;;;;;;;;14.89;84.44;97855.88;1831463;77;25947;-88
2021/09/18 01:00:09;;;;;;;;;;;;;;;14.92;84.46;97856.09;1824547;77;25298;-88
2021/09/18 01:02:36;;;;;;;;;;;;;;;14.95;84.44;97847.39;1822987;77;20227;-90
2021/09/18 01:05:04;;;;;;;;;;;;;;;14.89;84.44;97843.23;1824285;77;24918;-89
2021/09/18 01:07:31;;;;;;;;;;;;;;;14.85;84.45;97853.70;1832132;77;21978;-92
2021/09/18 01:10:06;;;;;;;;;;;;;;;14.83;84.45;97848.59;1818970;77;26537;-90
2021/09/18 01:12:34;;;;;;;;;;;;;;;14.83;84.44;97849.09;1805949;77;24403;-90
2021/09/18 01:15:00;;;;;;;;;;;;;;;14.85;84.46;97846.63;1798626;78;20243;-88
2021/09/18 01:17:32;;;;;;;;;;;;;;;14.89;84.45;97841.91;1795686;79;25362;-91
2021/09/18 01:19:58;;;;;;;;;;;;;;;14.92;84.39;97837.64;1798297;79;22121;-89
2021/09/18 01:22:28;;;;;;;;;;;;;;;14.93;84.37;97840.62;1796480;79;26071;-89
2021/09/18 01:24:54;;;;;;;;;;;;;;;14.94;84.33;97835.70;1770989;79;24912;-88
2021/09/18 01:27:20;;;;;;;;;;;;;;;14.94;84.30;97841.80;1794228;79;20293;-88
2021/09/18 01:29:46;;;;;;;;;;;;;;;14.93;84.30;97840.14;1798985;79;24708;-88
2021/09/18 01:32:17;;;;;;;;;;;;;;;14.93;84.27;97844.09;1796899;79;21804;-87
2021/09/18 01:34:43;;;;;;;;;;;;;;;14.91;84.24;97839.45;1799509;78;27985;-91
2021/09/18 01:37:09;;;;;;;;;;;;;;;14.92;84.21;97841.11;1799303;79;24504;-89
2021/09/18 01:39:35;;;;;;;;;;;;;;;14.93;84.20;97835.36;1794092;79;20255;-89
2021/09/18 01:42:04;;;;;;;;;;;;;;;14.94;84.18;97835.70;1796805;79;24795;-89
2021/09/18 01:44:31;;;;;;;;;;;;;;;14.93;84.15;97832.72;1798774;79;22101;-89
2021/09/18 01:46:57;;;;;;;;;;;;;;;14.89;84.13;97830.85;1795872;79;26208;-89
2021/09/18 01:49:23;;;;;;;;;;;;;;;14.91;84.09;97828.91;1792646;79;24372;-88
2021/09/18 01:52:07;;;;;;;;;;;;;;;14.95;84.06;97825.48;1797664;79;20220;-87
2021/09/18 01:54:34;;;;;;;;;;;;;;;14.93;84.03;97827.45;1797900;79;24757;-92
2021/09/18 01:57:01;;;;;;;;;;;;;;;14.90;83.99;97831.69;1775595;79;22006;-88
2021/09/18 01:59:28;;;;;;;;;;;;;;;14.87;83.98;97824.09;1800074;79;26224;-88
2021/09/18 02:01:56;;;;;;;;;;;;;;;14.81;83.92;97827.31;1797113;79;24517;-90
2021/09/18 02:04:22;;;;;;;;;;;;;;;14.77;83.88;97824.16;1799627;79;20139;-89
2021/09/18 02:06:48;;;;;;;;;;;;;;;14.73;83.84;97821.45;1759690;79;24615;-86
2021/09/18 02:09:14;;;;;;;;;;;;;;;14.64;83.82;97811.83;1798374;79;22906;-88
2021/09/18 02:11:40;;;;;;;;;;;;;;;14.60;83.81;97821.00;1806933;77;26109;-87
2021/09/18 02:14:06;;;;;;;;;;;;;;;14.55;83.79;97819.30;1820346;77;24466;-88
2021/09/18 02:16:32;;;;;;;;;;;;;;;14.49;83.78;97818.08;1828524;77;20178;-88
2021/09/18 02:18:58;;;;;;;;;;;;;;;14.45;83.79;97820.67;1827243;77;24745;-91
2021/09/18 02:21:25;;;;;;;;;;;;;;;14.43;83.78;97819.14;1821431;77;22013;-89
2021/09/18 02:23:51;;;;;;;;;;;;;;;14.41;83.81;97819.28;1766695;81;26029;-89
2021/09/18 02:26:17;;;;;;;;;;;;;;;14.43;83.83;97816.52;1775529;79;24472;-90
2021/09/18 02:28:52;;;;;;;;;;;;;;;14.45;83.85;97819.84;1773349;79;20224;-89
2021/09/18 02:31:19;;;;;;;;;;;;;;;14.41;83.86;97817.13;1773783;79;24737;-88
2021/09/18 02:33:46;;;;;;;;;;;;;;;14.42;83.87;97814.85;1775197;79;22059;-91
2021/09/18 02:36:12;;;;;;;;;;;;;;;14.41;83.88;97815.34;1773380;79;25974;-89
2021/09/18 02:38:38;;;;;;;;;;;;;;;14.42;83.87;97818.80;1772963;79;24485;-89
2021/09/18 02:41:04;;;;;;;;;;;;;;;14.41;83.86;97813.19;1782358;79;20205;-87
2021/09/18 02:43:30;;;;;;;;;;;;;;;14.39;83.85;97813.36;1775729;79;24834;-89
2021/09/18 02:45:59;;;;;;;;;;;;;;;14.40;83.85;97814.98;1776275;79;22047;-87
2021/09/18 02:48:25;;;;;;;;;;;;;;;14.38;83.83;97818.76;1776960;79;26084;-89
2021/09/18 02:50:51;;;;;;;;;;;;;;;14.37;83.81;97823.67;1773880;79;24361;-86
2021/09/18 02:53:17;;;;;;;;;;;;;;;14.38;83.83;97822.22;1776121;79;20247;-89
2021/09/18 02:55:44;;;;;;;;;;;;;;;14.38;83.84;97813.01;1778418;79;24747;-86
2021/09/18 02:58:10;;;;;;;;;;;;;;;14.40;83.81;97814.98;1772763;79;21965;-89
2021/09/18 03:00:36;;;;;;;;;;;;;;;14.42;83.84;97818.31;1775976;79;25961;-89
2021/09/18 03:03:02;;;;;;;;;;;;;;;14.43;83.80;97815.20;1772093;79;24477;-88
2021/09/18 03:05:28;;;;;;;;;;;;;;;14.42;83.80;97819.63;1777024;79;20571;-88
2021/09/18 03:07:54;;;;;;;;;;;;;;;14.40;83.79;97812.36;1763624;79;24741;-89
2021/09/18 03:10:20;;;;;;;;;;;;;;;14.42;83.78;97817.00;1773939;79;21956;-89
2021/09/18 03:12:46;;;;;;;;;;;;;;;14.40;83.78;97808.41;1811217;77;25973;-88
2021/09/18 03:15:12;;;;;;;;;;;;;;;14.42;83.76;97805.15;1809008;78;24668;-88
2021/09/18 03:17:39;;;;;;;;;;;;;;;14.42;83.74;97803.83;1806985;78;20253;-86
2021/09/18 03:20:06;;;;;;;;;;;;;;;14.46;83.73;97799.09;1808507;78;25384;-89
2021/09/18 03:22:34;;;;;;;;;;;;;;;14.49;83.74;97798.33;1809502;78;21406;-89
2021/09/18 03:25:00;;;;;;;;;;;;;;;14.53;83.72;97794.42;1809801;78;25956;-88
2021/09/18 03:27:26;;;;;;;;;;;;;;;14.58;83.70;97801.88;1816951;77;24462;-88
2021/09/18 03:29:53;;;;;;;;;;;;;;;14.62;83.69;97801.91;1807938;78;20145;-89
2021/09/18 03:32:20;;;;;;;;;;;;;;;14.68;83.67;97789.95;1822020;78;24485;-90
2021/09/18 03:34:46;;;;;;;;;;;;;;;14.69;83.63;97787.67;1812522;78;21969;-89
2021/09/18 03:37:12;;;;;;;;;;;;;;;14.71;83.60;97793.14;1790909;78;20914;-88
2021/09/18 03:39:38;;;;;;;;;;;;;;;14.74;83.60;97795.95;1808460;78;24465;-87
2021/09/18 03:42:04;;;;;;;;;;;;;;;14.72;83.53;97793.48;1806195;78;20239;-85
2021/09/18 03:44:30;;;;;;;;;;;;;;;14.73;83.51;97790.37;1812937;77;25440;-88
2021/09/18 03:46:56;;;;;;;;;;;;;;;14.71;83.45;97792.31;1809359;78;22030;-88
2021/09/18 03:49:22;;;;;;;;;;;;;;;14.72;83.43;97796.13;1814162;78;25948;-88
2021/09/18 03:51:48;;;;;;;;;;;;;;;14.70;83.39;97795.43;1811860;78;24558;-86
2021/09/18 03:54:15;;;;;;;;;;;;;;;14.73;83.38;97798.27;1806493;78;20302;-89
2021/09/18 03:56:41;;;;;;;;;;;;;;;14.73;83.35;97803.54;1811789;78;24824;-88
2021/09/18 03:59:07;;;;;;;;;;;;;;;14.72;83.31;97804.02;1810997;78;21423;-89
2021/09/18 04:01:33;;;;;;;;;;;;;;;14.73;83.29;97804.86;1815463;78;26036;-88
2021/09/18 04:03:59;;;;;;;;;;;;;;;14.72;83.25;97810.61;1811026;78;24445;-88
2021/09/18 04:06:31;;;;;;;;;;;;;;;14.76;83.24;97810.64;1806748;78;20262;-86
2021/09/18 04:08:57;;;;;;;;;;;;;;;14.76;83.22;97810.64;1814977;78;24789;-86
2021/09/18 04:11:23;;;;;;;;;;;;;;;14.77;83.17;97808.84;1808265;78;22046;-86
2021/09/18 04:13:51;;;;;;;;;;;;;;;14.80;83.15;97808.53;1788401;78;25978;-89
2021/09/18 04:16:18;;;;;;;;;;;;;;;14.81;83.15;97811.52;1806258;78;24445;-90
2021/09/18 04:18:44;;;;;;;;;;;;;;;14.79;83.10;97808.19;1804109;78;20197;-89
2021/09/18 04:21:11;;;;;;;;;;;;;;;14.73;83.07;97812.24;1804815;78;25648;-89
2021/09/18 04:23:40;;;;;;;;;;;;;;;14.63;83.04;97814.94;1803823;78;22041;-89
2021/09/18 04:26:08;;;;;;;;;;;;;;;14.55;83.00;97810.91;1810786;78;26038;-89
2021/09/18 04:28:34;;;;;;;;;;;;;;;14.51;82.95;97816.11;1811297;78;24449;-87
2021/09/18 04:31:00;;;;;;;;;;;;;;;14.42;82.90;97814.36;1808516;78;20828;-90
2021/09/18 04:33:26;;;;;;;;;;;;;;;14.32;82.84;97816.19;1806377;78;20245;-89
2021/09/18 04:35:52;;;;;;;;;;;;;;;14.26;82.81;97815.45;1803077;78;22101;-89
2021/09/18 04:38:18;;;;;;;;;;;;;;;14.22;82.79;97819.34;1805868;78;25918;-86
2021/09/18 04:40:44;;;;;;;;;;;;;;;14.20;82.77;97816.86;1806283;78;24488;-86
2021/09/18 04:43:11;;;;;;;;;;;;;;;14.23;82.74;97819.70;1805649;78;20176;-86
2021/09/18 04:45:37;;;;;;;;;;;;;;;14.25;82.72;97825.14;1803111;78;24758;-89
2021/09/18 04:48:04;;;;;;;;;;;;;;;14.28;82.70;97832.42;1811007;78;21936;-90
2021/09/18 04:50:30;;;;;;;;;;;;;;;14.25;82.68;97832.20;1808621;78;25920;-88
2021/09/18 04:52:56;;;;;;;;;;;;;;;14.19;82.65;97836.25;1808221;78;24472;-86
2021/09/18 04:55:22;;;;;;;;;;;;;;;14.18;82.60;97835.09;1811048;78;20290;-89
2021/09/18 04:57:48;;;;;;;;;;;;;;;14.17;82.56;97832.95;1808949;78;24803;-89
2021/09/18 05:00:15;;;;;;;;;;;;;;;14.23;82.51;97839.44;1806247;78;22110;-89
2021/09/18 05:02:41;;;;;;;;;;;;;;;14.27;82.49;97838.17;1804428;78;25981;-86
2021/09/18 05:05:07;;;;;;;;;;;;;;;14.29;82.47;97841.50;1810522;78;24420;-86
2021/09/18 05:07:34;;;;;;;;;;;;;;;14.27;82.43;97843.91;1806107;78;20535;-88
2021/09/18 05:10:01;;;;;;;;;;;;;;;14.29;82.35;97845.93;1807817;78;24790;-86
2021/09/18 05:12:27;;;;;;;;;;;;;;;14.29;82.34;97847.25;1803257;78;22030;-86
2021/09/18 05:14:53;;;;;;;;;;;;;;;14.28;82.24;97852.99;1796618;79;26024;-90
2021/09/18 05:17:19;;;;;;;;;;;;;;;14.24;82.16;97844.53;1797543;79;24473;-89
2021/09/18 05:19:45;;;;;;;;;;;;;;;14.20;82.09;97845.80;1797239;79;20305;-89
2021/09/18 05:22:12;;;;;;;;;;;;;;;14.15;81.99;97849.36;1796482;79;24779;-88
2021/09/18 05:24:41;;;;;;;;;;;;;;;14.15;81.95;97849.36;1796258;79;21937;-86
2021/09/18 05:27:07;;;;;;;;;;;;;;;14.16;81.91;97843.13;1759401;80;26146;-90
2021/09/18 05:29:34;;;;;;;;;;;;;;;14.18;81.82;97850.37;1749594;81;24482;-86
2021/09/18 05:32:00;;;;;;;;;;;;;;;14.13;81.78;97852.61;1745556;81;20442;-89
2021/09/18 05:34:26;;;;;;;;;;;;;;;14.14;81.70;97850.81;1728150;82;24748;-89
2021/09/18 05:36:53;;;;;;;;;;;;;;;14.15;81.62;97853.30;1703234;84;22010;-89
2021/09/18 05:39:19;;;;;;;;;;;;;;;14.18;81.57;97845.63;1721498;81;26053;-89
2021/09/18 05:41:45;;;;;;;;;;;;;;;14.23;81.55;97847.33;1797127;79;24478;-87
2021/09/18 05:44:11;;;;;;;;;;;;;;;14.21;81.51;97850.58;1787286;79;20799;-89
2021/09/18 05:46:37;;;;;;;;;;;;;;;14.23;81.46;97854.75;1798345;79;24721;-89
2021/09/18 05:49:03;;;;;;;;;;;;;;;14.29;81.41;97849.39;1798850;79;22042;-89
2021/09/18 05:51:32;;;;;;;;;;;;;;;14.37;81.35;97851.31;1795164;79;21468;-88
2021/09/18 05:53:58;;;;;;;;;;;;;;;14.40;81.32;97862.38;1796131;79;24456;-86
2021/09/18 05:56:24;;;;;;;;;;;;;;;14.41;81.27;97861.41;1799235;78;20227;-89
2021/09/18 05:58:50;;;;;;;;;;;;;;;14.47;81.25;97865.27;1798534;79;24812;-87
2021/09/18 06:01:16;;;;;;;;;;;;;;;14.47;81.19;97863.95;1798335;79;22128;-88
2021/09/18 06:03:42;;;;;;;;;;;;;;;14.51;81.17;97867.45;1791543;79;26016;-90
2021/09/18 06:06:08;;;;;;;;;;;;;;;14.58;81.13;97865.07;1798445;79;24450;-88
2021/09/18 06:08:35;;;;;;;;;;;;;;;14.63;81.10;97857.56;1798965;79;20509;-87
2021/09/18 06:11:01;;;;;;;;;;;;;;;14.67;81.03;97852.85;1798071;79;24721;-89
2021/09/18 06:13:27;;;;;;;;;;;;;;;14.64;80.89;97856.59;1813711;77;22021;-90
2021/09/18 06:15:53;;;;;;;;;;;;;;;14.61;80.78;97856.90;1826933;77;25966;-88
2021/09/18 06:18:19;;;;;;;;;;;;;;;14.55;80.64;97857.00;1827522;77;24402;-89
2021/09/18 06:20:45;;;;;;;;;;;;;;;14.52;80.53;97858.59;1825902;77;20883;-89
2021/09/18 06:23:11;;;;;;;;;;;;;;;14.51;80.44;97856.92;1828093;77;24796;-89
2021/09/18 06:25:37;;;;;;;;;;;;;;;14.50;80.37;97846.08;1831561;77;20279;-88
2021/09/18 06:28:03;;;;;;;;;;;;;;;14.49;80.29;97852.80;1831032;77;26003;-86
2021/09/18 06:30:29;;;;;;;;;;;;;;;14.52;80.21;97854.63;1830048;77;24416;-86
2021/09/18 06:32:55;;;;;;;;;;;;;;;14.60;80.15;97852.12;1825302;77;20251;-87
2021/09/18 06:35:22;;;;;;;;;;;;;;;14.65;80.09;97851.67;1831239;77;24715;-86
2021/09/18 06:37:51;;;;;;;;;;;;;;;14.67;80.02;97855.48;1832770;77;21905;-87
2021/09/18 06:40:18;;;;;;;;;;;;;;;14.73;80.00;97857.02;1827655;76;25997;-87
2021/09/18 06:42:45;;;;;;;;;;;;;;;14.71;79.96;97857.67;1825077;77;24442;-89
2021/09/18 06:45:11;;;;;;;;;;;;;;;14.74;79.92;97856.53;1822357;77;20273;-86
2021/09/18 06:47:37;;;;;;;;;;;;;;;14.79;79.86;97860.88;1832209;77;24712;-87
2021/09/18 06:50:05;;;;;;;;;;;;;;;14.85;79.83;97867.70;1820582;77;22059;-89
2021/09/18 06:52:31;;;;;;;;;;;;;;;14.91;79.79;97863.16;1821965;77;25934;-86
2021/09/18 06:54:57;;;;;;;;;;;;;;;14.95;79.78;97865.00;1828018;77;24757;-87
2021/09/18 06:57:23;;;;;;;;;;;;;;;14.99;79.76;97863.27;1826123;77;20510;-86
2021/09/18 06:59:49;;;;;;;;;;;;;;;15.05;79.71;97858.69;1827603;77;24779;-89
2021/09/18 07:02:15;;;;;;;;;;;;;;;15.14;79.71;97865.38;1825963;77;22836;-87
2021/09/18 07:04:41;;;;;;;;;;;;;;;15.19;79.70;97870.54;1833811;77;21265;-87
2021/09/18 07:07:07;;;;;;;;;;;;;;;15.22;79.67;97868.91;1822807;77;24493;-87
2021/09/18 07:09:34;;;;;;;;;;;;;;;15.24;79.63;97868.77;1831654;77;20317;-87
2021/09/18 07:12:00;;;;;;;;;;;;;;;15.27;79.56;97863.22;1823379;77;24814;-88
2021/09/18 07:14:26;;;;;;;;;;;;;;;15.27;79.51;97864.05;1836838;77;21944;-89
2021/09/18 07:16:52;;;;;;;;;;;;;;;15.28;79.46;97859.58;1843236;77;26045;-88
2021/09/18 07:19:18;;;;;;;;;;;;;;;15.28;79.39;97857.77;1836120;77;24384;-86
2021/09/18 07:21:44;;;;;;;;;;;;;;;15.28;79.32;97864.36;1838165;77;20300;-87
2021/09/18 07:24:10;;;;;;;;;;;;;;;15.32;79.25;97859.15;1832849;77;24858;-86
2021/09/18 07:26:37;;;;;;;;;;;;;;;15.36;79.23;97865.77;1833040;77;20870;-86
2021/09/18 07:29:04;;;;;;;;;;;;;;;15.41;79.22;97862.19;1840152;77;26020;-86
2021/09/18 07:31:31;;;;;;;;;;;;;;;15.47;79.20;97862.91;1833166;77;24392;-87
2021/09/18 07:33:57;;;;;;;;;;;;;;;15.52;79.17;97861.64;1842896;77;20259;-87
2021/09/18 07:36:23;;;;;;;;;;;;;;;15.52;79.12;97859.00;1835433;77;20264;-86
2021/09/18 07:38:49;;;;;;;;;;;;;;;15.55;79.05;97862.16;1836172;77;22012;-86
2021/09/18 07:41:15;;;;;;;;;;;;;;;15.60;79.02;97856.45;1833315;77;25992;-87
2021/09/18 07:43:42;;;;;;;;;;;;;;;15.64;78.98;97853.84;1837393;77;24411;-87
2021/09/18 07:46:09;;;;;;;;;;;;;;;15.62;78.91;97856.63;1835309;77;20263;-86
2021/09/18 07:48:35;;;;;;;;;;;;;;;15.64;78.83;97859.11;1837760;77;24720;-86
2021/09/18 07:51:07;;;;;;;;;;;;;;;15.65;78.74;97857.66;1840894;77;22072;-86
2021/09/18 07:53:33;;;;;;;;;;;;;;;15.62;78.69;97857.11;1842530;77;26008;-86
2021/09/18 07:55:59;;;;;;;;;;;;;;;15.55;78.52;97856.88;1833778;76;24512;-86
2021/09/18 07:58:25;;;;;;;;;;;;;;;15.56;78.36;97855.91;1846104;77;20321;-89
2021/09/18 08:00:54;;;;;;;;;;;;;;;15.53;78.14;97854.08;1807099;77;39414;-88
2021/09/18 08:03:20;;;;;;;;;;;;;;;15.48;77.96;97856.66;1839539;77;23851;-86
2021/09/18 08:05:46;;;;;;;;;;;;;;;15.46;77.72;97858.60;1832036;77;26049;-86
2021/09/18 08:08:12;;;;;;;;;;;;;;;15.46;77.56;97864.36;1834345;77;24401;-89
2021/09/18 08:10:38;;;;;;;;;;;;;;;15.35;77.34;97856.20;1845021;77;20286;-89
2021/09/18 08:13:04;;;;;;;;;;;;;;;15.30;77.14;97858.95;1835550;77;24798;-87
2021/09/18 08:15:30;;;;;;;;;;;;;;;15.29;76.96;97864.70;1788600;78;22273;-86
2021/09/18 08:17:56;;;;;;;;;;;;;;;15.33;76.82;97864.73;1812917;77;20801;-86
2021/09/18 08:20:22;;;;;;;;;;;;;;;15.33;76.70;97866.54;1815476;77;24392;-89
2021/09/18 08:22:50;;;;;;;;;;;;;;;15.35;76.60;97872.50;1811806;78;20221;-87
2021/09/18 08:25:16;;;;;;;;;;;;;;;15.43;76.50;97868.15;1814317;77;24759;-87
2021/09/18 08:27:42;;;;;;;;;;;;;;;15.49;76.45;97872.79;1812789;78;21953;-86
2021/09/18 08:30:08;;;;;;;;;;;;;;;15.52;76.36;97869.55;1813753;78;25902;-89
2021/09/18 08:32:34;;;;;;;;;;;;;;;15.59;76.26;97870.62;1819152;77;24516;-86
2021/09/18 08:35:00;;;;;;;;;;;;;;;15.60;76.15;97869.13;1818434;78;20250;-86
2021/09/18 08:37:27;;;;;;;;;;;;;;;15.54;76.02;97872.39;1814638;78;24712;-86
2021/09/18 08:39:53;;;;;;;;;;;;;;;15.48;75.87;97871.16;1812842;77;22176;-89
2021/09/18 08:42:20;;;;;;;;;;;;;;;15.50;75.75;97871.81;1814992;78;26123;-87
2021/09/18 08:44:46;;;;;;;;;;;;;;;15.55;75.66;97875.34;1822037;77;24399;-86
2021/09/18 08:47:14;;;;;;;;;;;;;;;15.63;75.62;97868.83;1810736;78;20280;-86
2021/09/18 08:49:41;;;;;;;;;;;;;;;15.69;75.54;97867.39;1811606;77;24745;-85
2021/09/18 08:52:07;;;;;;;;;;;;;;;15.72;75.46;97866.59;1810712;78;22135;-87
2021/09/18 08:54:35;;;;;;;;;;;;;;;15.75;75.45;97868.94;1811415;78;25953;-87
2021/09/18 08:57:01;;;;;;;;;;;;;;;15.77;75.42;97868.27;1819154;77;24409;-87
2021/09/18 08:59:27;;;;;;;;;;;;;;;15.75;75.33;97862.83;1815596;78;20946;-86
2021/09/18 09:02:13;;;;;;;;;;;;;;;15.72;75.23;97864.44;1825982;77;24706;-86
2021/09/18 09:04:40;;;;;;;;;;;;;;;15.69;75.16;97870.87;1825283;78;22119;-85
2021/09/18 09:07:07;;;;;;;;;;;;;;;15.61;75.03;97876.06;1816441;77;25999;-85
2021/09/18 09:09:53;;;;;;;;;;;;;;;15.58;74.92;97871.59;1819456;78;25522;-88
2021/09/18 09:12:27;;;;;;;;;;;;;;;15.62;74.88;97871.62;1812351;78;20621;-86
2021/09/18 09:14:53;;;;;;;;;;;;;;;15.74;74.85;97867.28;1832095;77;24733;-87
2021/09/18 09:17:24;;;;;;;;;;;;;;;15.84;74.82;97871.14;1827417;77;21971;-87
2021/09/18 09:19:53;;;;;;;;;;;;;;;15.87;74.74;97873.48;1820824;77;26712;-86
2021/09/18 09:22:41;;;;;;;;;;;;;;;15.80;74.59;97875.91;1823303;77;24419;-85
2021/09/18 09:25:26;;;;;;;;;;;;;;;15.84;74.50;97879.05;1826597;77;20227;-88
2021/09/18 09:27:53;;;;;;;;;;;;;;;15.90;74.37;97877.12;1832530;77;24733;-89
2021/09/18 09:30:25;;;;;;;;;;;;;;;15.96;74.29;97877.83;1829335;77;21973;-89
2021/09/18 09:32:51;;;;;;;;;;;;;;;16.07;74.27;97882.02;1765554;79;25886;-87
2021/09/18 09:35:19;;;;;;;;;;;;;;;16.13;74.23;97882.73;1753360;80;24471;-87
2021/09/18 09:37:56;;;;;;;;;;;;;;;16.19;74.13;97877.66;1739064;80;20267;-88
2021/09/18 09:40:42;;;;;;;;;;;;;;;16.27;74.04;97872.41;1786407;79;24834;-88
2021/09/18 09:43:16;;;;;;;;;;;;;;;16.39;73.99;97874.30;1789098;79;22240;-88
2021/09/18 09:45:46;;;;;;;;;;;;;;;16.45;73.87;97876.31;1784821;79;26767;-88
2021/09/18 09:48:13;;;;;;;;;;;;;;;16.51;73.75;97871.72;1782753;79;24728;-86
2021/09/18 09:50:41;;;;;;;;;;;;;;;16.56;73.57;97873.89;1786621;79;20547;-88
2021/09/18 09:53:08;;;;;;;;;;;;;;;16.58;73.34;97872.72;1797401;78;24789;-86
2021/09/18 09:55:36;;;;;;;;;;;;;;;16.58;73.15;97874.05;1779167;79;21542;-86
2021/09/18 09:58:04;;;;;;;;;;;;;;;16.57;72.95;97869.77;1790401;79;26068;-88
2021/09/18 10:00:47;;;;;;;;;;;;;;;16.57;72.84;97870.27;1766937;80;25084;-85
2021/09/18 10:03:13;;;;;;;;;;;;;;;16.59;72.72;97869.63;1750966;80;20248;-87
2021/09/18 10:05:39;;;;;;;;;;;;;;;16.58;72.55;97864.00;1780113;79;24786;-87
2021/09/18 10:08:05;;;;;;;;;;;;;;;16.57;72.38;97866.30;1762955;80;22024;-88
2021/09/18 10:10:33;;;;;;;;;;;;;;;16.56;72.22;97863.32;1758298;81;26058;-88
2021/09/18 10:12:59;;;;;;;;;;;;;;;16.57;72.07;97863.17;1768373;80;25263;-87
2021/09/18 10:15:28;;;;;;;;;;;;;;;16.69;72.04;97858.47;1768671;79;20173;-85
2021/09/18 10:17:56;;;;;;;;;;;;;;;16.78;71.97;97863.27;1754289;79;24852;-87
2021/09/18 10:25:49;;;;;;;;;;;;;;;16.89;71.57;97860.34;1775620;79;23864;-87
2021/09/18 10:28:20;;;;;;;;;;;;;;;16.88;71.49;97871.41;1779977;79;20345;-89
2021/09/18 10:30:55;;;;;;;;;;;;;;;16.81;71.25;97862.94;1808468;77;24850;-86
2021/09/18 10:33:31;;;;;;;;;;;;;;;16.74;71.05;97870.70;1827617;77;22054;-86
2021/09/18 10:36:04;;;;;;;;;;;;;;;16.63;70.81;97866.53;1822586;77;25923;-87
2021/09/18 10:38:40;;;;;;;;;;;;;;;16.65;70.65;97866.35;1824451;77;24502;-88
2021/09/18 10:41:24;;;;;;;;;;;;;;;16.65;70.53;97871.64;1818484;77;20217;-87
2021/09/18 10:43:59;;;;;;;;;;;;;;;16.57;70.33;97876.38;1832669;77;24718;-87
2021/09/18 10:46:45;;;;;;;;;;;;;;;16.52;70.12;97873.87;1829857;77;21921;-86
2021/09/18 10:49:31;;;;;;;;;;;;;;;16.54;70.00;97877.16;1826431;77;26032;-86
2021/09/18 10:52:16;;;;;;;;;;;;;;;16.53;69.91;97878.17;1800869;77;24653;-87
2021/09/18 10:55:00;;;;;;;;;;;;;;;16.46;69.80;97874.50;1751683;80;20218;-85
2021/09/18 10:57:27;;;;;;;;;;;;;;;16.47;69.73;97868.23;1823703;77;24872;-86
2021/09/18 10:59:59;;;;;;;;;;;;;;;16.45;69.63;97868.88;1830938;77;22027;-88
2021/09/18 11:02:33;;;;;;;;;;;;;;;16.41;69.55;97872.34;1827576;77;26611;-86
2021/09/18 11:05:00;;;;;;;;;;;;;;;16.39;69.52;97869.02;1829915;77;24485;-85
2021/09/18 11:07:48;;;;;;;;;;;;;;;16.38;69.46;97863.39;1826430;77;20341;-85
2021/09/18 11:10:24;;;;;;;;;;;;;;;16.36;69.39;97868.52;1833469;77;24732;-89
2021/09/18 11:13:11;;;;;;;;;;;;;;;16.40;69.39;97868.52;1824926;77;22089;-89
2021/09/18 11:15:57;;;;;;;;;;;;;;;16.46;69.41;97867.90;1826512;77;26027;-88
2021/09/18 11:18:34;;;;;;;;;;;;;;;16.50;69.43;97870.06;1826142;77;25283;-85
2021/09/18 11:21:02;;;;;;;;;;;;;;;16.52;69.40;97874.70;1821353;77;20191;-85
2021/09/18 11:23:35;;;;;;;;;;;;;;;16.54;69.40;97866.60;1833977;77;24955;-84
2021/09/18 11:26:02;;;;;;;;;;;;;;;16.51;69.35;97870.41;1829116;77;22012;-85
2021/09/18 11:28:36;;;;;;;;;;;;;;;16.51;69.29;97874.36;1829846;76;26257;-86
2021/09/18 11:31:04;;;;;;;;;;;;;;;16.52;69.23;97867.27;1825676;77;25292;-86
2021/09/18 11:33:32;;;;;;;;;;;;;;;16.53;69.13;97864.97;1822289;77;20217;-87
2021/09/18 11:35:59;;;;;;;;;;;;;;;16.53;69.08;97870.25;1828746;77;24814;-86
2021/09/18 11:38:26;;;;;;;;;;;;;;;16.49;69.00;97871.53;1828931;77;21856;-89
2021/09/18 11:40:54;;;;;;;;;;;;;;;16.48;68.92;97869.38;1805249;77;25943;-88
2021/09/18 11:43:28;;;;;;;;;;;;;;;16.51;68.88;97867.77;1820339;77;25293;-85
2021/09/18 11:45:56;;;;;;;;;;;;;;;16.51;68.88;97869.08;1826913;77;20145;-85
2021/09/18 11:48:24;;;;;;;;;;;;;;;16.53;68.83;97862.33;1827057;77;24090;-84
2021/09/18 11:50:50;;;;;;;;;;;;;;;16.54;68.78;97862.64;1821950;77;22613;-85
2021/09/18 11:53:17;;;;;;;;;;;;;;;16.56;68.73;97858.86;1826502;77;26554;-85
2021/09/18 11:55:50;;;;;;;;;;;;;;;16.61;68.72;97854.45;1826205;77;24376;-87
2021/09/18 11:58:20;;;;;;;;;;;;;;;16.65;68.74;97859.75;1825584;77;20206;-85
2021/09/18 12:00:48;;;;;;;;;;;;;;;16.69;68.78;97861.91;1823255;77;25455;-88
2021/09/18 12:03:16;;;;;;;;;;;;;;;16.75;68.81;97857.80;1820635;77;21998;-88
2021/09/18 12:05:42;;;;;;;;;;;;;;;16.89;68.91;97856.38;1812171;77;25979;-87
2021/09/18 12:08:09;;;;;;;;;;;;;;;16.97;68.95;97853.73;1827872;77;24430;-86
2021/09/18 12:10:35;;;;;;;;;;;;;;;17.03;68.91;97854.42;1831299;77;20205;-86
2021/09/18 12:13:06;;;;;;;;;;;;;;;17.09;68.93;97848.48;1824013;76;24735;-85
2021/09/18 12:15:31;;;;;;;;;;;;;;;17.11;68.90;97846.03;1830828;77;22058;-85
2021/09/18 12:17:57;;;;;;;;;;;;;;;17.07;68.83;97849.96;1817402;78;26086;-85
2021/09/18 12:20:24;;;;;;;;;;;;;;;17.03;68.71;97848.64;1826593;77;24469;-86
2021/09/18 12:22:50;;;;;;;;;;;;;;;17.08;68.75;97842.37;1817887;78;20320;-86
2021/09/18 12:25:16;;;;;;;;;;;;;;;17.05;68.68;97847.99;1820948;78;24739;-85
2021/09/18 12:27:42;;;;;;;;;;;;;;;17.04;68.59;97851.62;1820438;78;20332;-85
2021/09/18 12:30:14;;;;;;;;;;;;;;;17.09;68.60;97846.67;1821640;78;26730;-88
2021/09/18 12:32:41;;;;;;;;;;;;;;;17.15;68.62;97848.67;1818062;78;24567;-85
2021/09/18 12:35:09;;;;;;;;;;;;;;;17.21;68.63;97853.80;1817651;78;20307;-88
2021/09/18 12:37:39;;;;;;;;;;;;;;;17.20;68.53;97852.14;1818106;77;24836;-86
2021/09/18 12:40:19;;;;;;;;;;;;;;;17.17;68.43;97864.88;1818838;78;21981;-85
2021/09/18 12:43:03;;;;;;;;;;;;;;;17.15;68.39;97863.22;1822835;78;26683;-87
2021/09/18 12:45:29;;;;;;;;;;;;;;;17.14;68.31;97861.55;1822214;78;24435;-85
2021/09/18 12:48:11;;;;;;;;;;;;;;;17.22;68.28;97851.50;1818392;78;20219;-86
2021/09/18 12:50:54;;;;;;;;;;;;;;;17.18;68.20;97843.56;1815240;78;24781;-86
2021/09/18 12:53:22;;;;;;;;;;;;;;;17.21;68.08;97854.30;1819727;78;22228;-87
2021/09/18 12:56:05;;;;;;;;;;;;;;;17.17;67.94;97851.16;1813042;78;27096;-86
2021/09/18 12:58:32;;;;;;;;;;;;;;;17.25;67.92;97847.19;1814085;78;25291;-86